createdAt,value
2022-08-30T00:01:03.052Z,21.14
2022-08-30T00:03:38.640Z,21.11
2022-08-30T00:06:12.003Z,21.08
2022-08-30T00:08:50.643Z,21.09
2022-08-30T00:11:25.631Z,21.13
2022-08-30T00:13:59.949Z,21.06
2022-08-30T00:16:33.255Z,21.08
2022-08-30T00:19:06.013Z,21.00
2022-08-30T00:21:39.466Z,21.00
2022-08-30T00:24:13.600Z,21.00
2022-08-30T00:26:46.841Z,20.97
2022-08-30T00:29:19.840Z,20.91
2022-08-30T00:31:52.700Z,20.97
2022-08-30T00:34:25.597Z,20.99
2022-08-30T00:36:59.586Z,20.95
2022-08-30T00:39:33.686Z,20.92
2022-08-30T00:42:06.878Z,20.91
2022-08-30T00:44:40.237Z,20.88
2022-08-30T00:47:13.794Z,20.89
2022-08-30T00:49:49.073Z,20.90
2022-08-30T00:52:24.716Z,20.91
2022-08-30T00:54:58.809Z,20.92
2022-08-30T00:57:32.850Z,20.89
2022-08-30T01:00:08.768Z,20.91
2022-08-30T01:02:42.378Z,20.84
2022-08-30T01:05:16.274Z,20.82
2022-08-30T01:07:49.793Z,20.81
2022-08-30T01:10:24.092Z,20.80
2022-08-30T01:12:57.314Z,20.83
2022-08-30T01:15:32.561Z,20.83
2022-08-30T01:18:07.889Z,20.81
2022-08-30T01:20:49.212Z,20.85
2022-08-30T01:23:26.962Z,20.81
2022-08-30T01:26:03.194Z,20.78
2022-08-30T01:28:36.534Z,20.78
2022-08-30T01:31:09.662Z,20.75
2022-08-30T01:33:42.698Z,20.70
2022-08-30T01:36:15.775Z,20.72
2022-08-30T01:38:52.107Z,20.74
2022-08-30T01:41:27.365Z,20.74
2022-08-30T01:44:03.120Z,20.65
2022-08-30T01:46:39.878Z,20.60
2022-08-30T01:49:16.182Z,20.60
2022-08-30T01:51:48.942Z,20.68
2022-08-30T01:54:27.486Z,20.61
2022-08-30T01:57:10.876Z,20.53
2022-08-30T01:59:47.704Z,20.51
2022-08-30T02:02:24.498Z,20.54
2022-08-30T02:04:58.909Z,20.55
2022-08-30T02:07:31.892Z,20.54
2022-08-30T02:10:06.296Z,20.46
2022-08-30T02:12:39.177Z,20.47
2022-08-30T02:15:13.003Z,20.51
2022-08-30T02:17:45.779Z,20.46
2022-08-30T02:20:19.040Z,20.46
2022-08-30T02:22:51.806Z,20.51
2022-08-30T02:25:25.953Z,20.44
2022-08-30T02:27:58.725Z,20.44
2022-08-30T02:30:32.159Z,20.41
2022-08-30T02:33:05.246Z,20.45
2022-08-30T02:35:37.870Z,20.41
2022-08-30T02:38:11.553Z,20.39
2022-08-30T02:40:46.673Z,20.35
2022-08-30T02:43:19.703Z,20.32
2022-08-30T02:45:52.564Z,20.33
2022-08-30T02:48:25.771Z,20.33
2022-08-30T02:50:58.591Z,20.30
2022-08-30T02:53:31.442Z,20.30
2022-08-30T02:56:05.637Z,20.29
2022-08-30T02:58:40.006Z,20.29
2022-08-30T03:01:15.068Z,20.25
2022-08-30T03:03:49.108Z,20.21
2022-08-30T03:06:21.955Z,20.16
2022-08-30T03:08:54.692Z,20.17
2022-08-30T03:11:30.037Z,20.15
2022-08-30T03:14:03.208Z,20.15
2022-08-30T03:16:36.043Z,20.15
2022-08-30T03:19:08.811Z,20.17
2022-08-30T03:21:41.597Z,20.13
2022-08-30T03:24:14.602Z,20.07
2022-08-30T03:26:48.598Z,20.07
2022-08-30T03:29:21.314Z,20.08
2022-08-30T03:31:54.155Z,20.05
2022-08-30T03:34:27.896Z,20.01
2022-08-30T03:37:01.379Z,20.09
2022-08-30T03:39:34.705Z,19.99
2022-08-30T03:42:09.326Z,20.02
2022-08-30T03:44:42.154Z,19.96
2022-08-30T03:47:15.039Z,20.00
2022-08-30T03:49:47.750Z,19.95
2022-08-30T03:52:20.460Z,19.94
2022-08-30T03:54:53.214Z,19.95
2022-08-30T03:57:27.660Z,19.99
2022-08-30T04:00:00.364Z,19.96
2022-08-30T04:02:33.298Z,19.91
2022-08-30T04:05:06.481Z,19.90
2022-08-30T04:07:39.704Z,19.88
2022-08-30T04:10:13.016Z,19.85
2022-08-30T04:12:49.792Z,19.88
2022-08-30T04:15:22.693Z,19.83
2022-08-30T04:17:55.499Z,19.85
2022-08-30T04:20:28.675Z,19.88
2022-08-30T04:23:02.619Z,19.85
2022-08-30T04:25:35.847Z,19.81
2022-08-30T04:28:10.789Z,19.83
2022-08-30T04:30:45.463Z,19.81
2022-08-30T04:33:19.218Z,19.80
2022-08-30T04:35:52.189Z,19.79
2022-08-30T04:38:30.368Z,19.74
2022-08-30T04:41:03.817Z,19.70
2022-08-30T04:43:38.290Z,19.67
2022-08-30T04:46:11.521Z,19.65
2022-08-30T04:48:45.089Z,19.63
2022-08-30T04:51:18.959Z,19.66
2022-08-30T04:53:51.704Z,19.64
2022-08-30T04:56:26.086Z,19.70
2022-08-30T04:59:00.198Z,19.67
2022-08-30T05:01:45.063Z,19.59
2022-08-30T05:04:18.621Z,19.62
2022-08-30T05:06:51.335Z,19.71
2022-08-30T05:09:24.507Z,19.69
2022-08-30T05:11:58.378Z,19.63
2022-08-30T05:14:34.313Z,19.66
2022-08-30T05:17:06.998Z,19.63
2022-08-30T05:19:39.966Z,19.62
2022-08-30T05:22:12.789Z,19.60
2022-08-30T05:24:45.959Z,19.58
2022-08-30T05:27:18.693Z,19.61
2022-08-30T05:29:54.492Z,19.62
2022-08-30T05:32:27.151Z,19.59
2022-08-30T05:34:59.878Z,19.63
2022-08-30T05:37:32.610Z,19.57
2022-08-30T05:40:07.475Z,19.58
2022-08-30T05:42:44.282Z,19.60
2022-08-30T05:45:18.755Z,19.60
2022-08-30T05:47:51.611Z,19.66
2022-08-30T05:50:24.379Z,19.64
2022-08-30T05:52:57.093Z,19.63
2022-08-30T05:55:29.963Z,19.64
2022-08-30T05:58:02.964Z,19.65
2022-08-30T06:00:38.080Z,19.65
2022-08-30T06:03:12.752Z,19.67
2022-08-30T06:08:19.808Z,19.71
2022-08-30T06:10:52.873Z,19.70
2022-08-30T06:13:25.471Z,19.73
2022-08-30T06:15:59.905Z,19.66
2022-08-30T06:18:32.780Z,19.75
2022-08-30T06:21:06.073Z,19.82
2022-08-30T06:23:38.777Z,19.77
2022-08-30T06:26:12.724Z,19.80
2022-08-30T06:28:45.770Z,19.80
2022-08-30T06:31:20.536Z,19.87
2022-08-30T06:33:54.109Z,19.81
2022-08-30T06:36:27.353Z,19.88
2022-08-30T06:39:00.372Z,19.83
2022-08-30T06:41:35.319Z,19.86
2022-08-30T06:44:09.754Z,19.92
2022-08-30T06:46:44.197Z,19.82
2022-08-30T06:49:17.222Z,19.85
2022-08-30T06:51:49.777Z,19.85
2022-08-30T06:54:24.307Z,19.89
2022-08-30T06:56:58.616Z,19.85
2022-08-30T06:59:32.449Z,19.88
2022-08-30T07:02:07.224Z,19.90
2022-08-30T07:04:40.066Z,19.93
2022-08-30T07:07:13.076Z,19.33
2022-08-30T07:09:45.633Z,19.50
2022-08-30T07:12:18.469Z,19.72
2022-08-30T07:14:51.546Z,19.43
2022-08-30T07:17:44.577Z,19.63
2022-08-30T07:20:18.380Z,19.80
2022-08-30T07:22:55.727Z,19.91
2022-08-30T07:25:28.454Z,19.90
2022-08-30T07:28:02.918Z,19.94
2022-08-30T07:30:36.545Z,20.18
2022-08-30T07:33:10.781Z,20.08
2022-08-30T07:35:43.771Z,20.08
2022-08-30T07:38:16.835Z,20.27
2022-08-30T07:40:49.723Z,20.26
2022-08-30T07:43:22.377Z,20.34
2022-08-30T07:45:56.046Z,20.40
2022-08-30T07:48:30.605Z,20.18
2022-08-30T07:51:05.500Z,20.15
2022-08-30T07:53:38.436Z,20.22
2022-08-30T07:56:12.076Z,20.47
2022-08-30T07:58:44.825Z,20.28
2022-08-30T08:01:19.588Z,20.53
2022-08-30T08:03:53.859Z,20.59
2022-08-30T08:06:27.614Z,20.53
2022-08-30T08:09:07.968Z,20.79
2022-08-30T08:11:41.365Z,20.63
2022-08-30T08:16:51.700Z,20.78
2022-08-30T08:19:26.287Z,20.93
2022-08-30T08:22:20.847Z,21.30
2022-08-30T08:24:53.172Z,21.84
2022-08-30T08:27:25.851Z,22.07
2022-08-30T08:29:59.328Z,22.20
2022-08-30T08:32:32.070Z,22.13
2022-08-30T08:35:06.515Z,22.26
2022-08-30T08:37:39.396Z,22.39
2022-08-30T08:40:16.751Z,22.41
2022-08-30T08:43:00.284Z,22.64
2022-08-30T08:45:52.922Z,22.78
2022-08-30T08:48:58.630Z,22.86
2022-08-30T08:51:52.212Z,23.00
2022-08-30T08:54:34.022Z,23.00
2022-08-30T08:57:06.865Z,23.13
2022-08-30T08:59:39.712Z,23.22
2022-08-30T09:02:23.949Z,23.33
2022-08-30T09:05:01.661Z,23.40
2022-08-30T09:07:42.011Z,23.55
2022-08-30T09:10:18.269Z,23.70
2022-08-30T09:13:00.087Z,23.88
2022-08-30T09:15:38.074Z,23.89
2022-08-30T09:18:19.865Z,23.91
2022-08-30T09:20:53.296Z,24.05
2022-08-30T09:23:32.472Z,24.08
2022-08-30T09:26:08.916Z,24.15
2022-08-30T09:28:46.480Z,24.25
2022-08-30T09:31:25.487Z,24.28
2022-08-30T09:34:03.631Z,24.59
2022-08-30T09:36:43.735Z,24.61
2022-08-30T09:39:20.511Z,24.65
2022-08-30T09:41:55.414Z,24.81
2022-08-30T09:44:29.638Z,24.86
2022-08-30T09:47:05.050Z,25.02
2022-08-30T09:49:39.928Z,25.02
2022-08-30T09:52:34.852Z,23.96
2022-08-30T09:55:23.069Z,23.61
2022-08-30T09:58:08.546Z,23.68
2022-08-30T10:00:51.606Z,24.40
2022-08-30T10:03:40.124Z,23.76
2022-08-30T10:06:24.085Z,24.17
2022-08-30T10:09:12.768Z,23.70
2022-08-30T10:11:56.899Z,23.96
2022-08-30T10:14:42.878Z,24.49
2022-08-30T10:17:27.516Z,24.19
2022-08-30T10:20:12.718Z,24.34
2022-08-30T10:22:51.777Z,24.88
2022-08-30T10:25:29.022Z,24.33
2022-08-30T10:28:11.272Z,24.21
2022-08-30T10:30:54.189Z,24.20
2022-08-30T10:33:34.476Z,24.04
2022-08-30T10:36:11.581Z,24.26
2022-08-30T10:38:50.003Z,25.00
2022-08-30T10:41:29.802Z,24.86
2022-08-30T10:44:12.459Z,25.19
2022-08-30T10:46:58.871Z,25.07
2022-08-30T10:49:36.713Z,25.51
2022-08-30T10:52:26.780Z,25.00
2022-08-30T10:55:03.450Z,25.23
2022-08-30T10:57:36.219Z,25.32
2022-08-30T11:00:14.779Z,25.90
2022-08-30T11:03:25.114Z,25.60
2022-08-30T11:06:17.642Z,25.85
2022-08-30T11:09:05.210Z,25.31
2022-08-30T11:11:55.034Z,25.78
2022-08-30T11:14:28.185Z,25.69
2022-08-30T11:17:02.499Z,25.75
2022-08-30T11:19:39.415Z,26.26
2022-08-30T11:22:16.995Z,26.01
2022-08-30T11:25:09.883Z,26.24
2022-08-30T11:27:47.601Z,26.34
2022-08-30T11:30:57.647Z,26.89
2022-08-30T11:33:46.588Z,26.88
2022-08-30T11:37:09.759Z,26.77
2022-08-30T11:39:57.331Z,26.88
2022-08-30T11:42:37.317Z,26.52
2022-08-30T11:46:00.266Z,26.81
2022-08-30T11:48:53.735Z,26.68
2022-08-30T11:51:50.870Z,26.96
2022-08-30T11:54:53.040Z,27.15
2022-08-30T11:57:32.201Z,26.64
2022-08-30T12:00:10.597Z,27.06
2022-08-30T12:02:49.015Z,27.49
2022-08-30T12:05:51.329Z,27.69
2022-08-30T12:09:02.275Z,26.39
2022-08-30T12:12:04.816Z,26.04
2022-08-30T12:14:42.168Z,26.25
2022-08-30T12:17:39.943Z,26.77
2022-08-30T12:20:19.490Z,27.21
2022-08-30T12:22:56.292Z,26.25
2022-08-30T12:25:32.665Z,26.64
2022-08-30T12:28:21.542Z,26.27
2022-08-30T12:30:55.484Z,26.70
2022-08-30T12:33:36.604Z,27.07
2022-08-30T12:36:16.949Z,27.50
2022-08-30T12:38:51.488Z,27.49
2022-08-30T12:41:25.431Z,27.18
2022-08-30T12:43:59.046Z,26.67
2022-08-30T12:46:32.159Z,27.81
2022-08-30T12:49:05.337Z,27.27
2022-08-30T12:51:41.232Z,26.91
2022-08-30T12:54:18.541Z,28.10
2022-08-30T12:57:03.665Z,27.38
2022-08-30T12:59:59.283Z,28.39
2022-08-30T13:02:45.754Z,26.89
2022-08-30T13:05:34.683Z,26.52
2022-08-30T13:08:15.373Z,27.01
2022-08-30T13:11:04.399Z,27.51
2022-08-30T13:13:44.519Z,28.52
2022-08-30T13:16:29.376Z,27.22
2022-08-30T13:19:27.423Z,27.14
2022-08-30T13:22:01.578Z,27.95
2022-08-30T13:24:34.383Z,26.98
2022-08-30T13:27:09.672Z,27.35
2022-08-30T13:29:42.439Z,27.86
2022-08-30T13:32:16.635Z,27.59
2022-08-30T13:34:49.665Z,27.58
2022-08-30T13:40:17.970Z,28.43
2022-08-30T13:42:52.217Z,27.70
2022-08-30T13:45:41.386Z,27.36
2022-08-30T13:48:17.413Z,27.73
2022-08-30T13:50:57.728Z,27.44
2022-08-30T13:56:24.669Z,27.71
2022-08-30T13:58:59.464Z,26.77
2022-08-30T14:02:07.439Z,27.37
2022-08-30T14:04:25.178Z,26.55
2022-08-30T14:07:16.961Z,26.76
2022-08-30T14:09:52.070Z,27.75
2022-08-30T14:15:20.220Z,27.85
2022-08-30T14:17:52.910Z,27.74
2022-08-30T14:20:25.831Z,26.52
2022-08-30T14:22:59.559Z,26.83
2022-08-30T14:25:32.116Z,26.89
2022-08-30T14:28:04.982Z,26.16
2022-08-30T14:30:40.391Z,26.68
2022-08-30T14:33:15.589Z,27.72
2022-08-30T14:35:48.354Z,26.23
2022-08-30T14:38:22.042Z,27.05
2022-08-30T14:40:55.132Z,27.52
2022-08-30T14:43:27.832Z,27.34
2022-08-30T14:46:02.738Z,27.54
2022-08-30T14:48:37.773Z,27.83
2022-08-30T14:51:16.588Z,26.56
2022-08-30T14:53:53.299Z,27.59
2022-08-30T14:56:26.020Z,26.82
2022-08-30T14:59:00.538Z,26.68
2022-08-30T15:01:37.085Z,27.47
2022-08-30T15:04:11.232Z,26.70
2022-08-30T15:06:46.020Z,27.25
2022-08-30T15:09:23.068Z,26.53
2022-08-30T15:11:59.499Z,26.16
2022-08-30T15:14:33.499Z,26.05
2022-08-30T15:17:07.788Z,26.71
2022-08-30T15:19:40.542Z,27.15
2022-08-30T15:22:14.335Z,27.08
2022-08-30T15:24:48.804Z,26.48
2022-08-30T15:27:21.688Z,27.57
2022-08-30T15:29:54.363Z,26.80
2022-08-30T15:32:29.296Z,26.83
2022-08-30T15:35:05.588Z,27.03
2022-08-30T15:37:40.552Z,26.28
2022-08-30T15:40:13.701Z,25.08
2022-08-30T15:42:46.997Z,25.71
2022-08-30T15:45:20.005Z,25.51
2022-08-30T15:47:53.879Z,26.17
2022-08-30T15:50:27.568Z,26.93
2022-08-30T15:53:01.994Z,26.58
2022-08-30T15:55:34.794Z,27.00
2022-08-30T15:58:07.423Z,26.78
2022-08-30T16:00:44.802Z,26.55
2022-08-30T16:03:19.077Z,25.87
2022-08-30T16:05:52.942Z,26.00
2022-08-30T16:08:26.113Z,26.14
2022-08-30T16:10:58.768Z,25.79
2022-08-30T16:13:32.541Z,26.90
2022-08-30T16:16:08.818Z,26.38
2022-08-30T16:18:42.970Z,26.24
2022-08-30T16:21:18.013Z,26.50
2022-08-30T16:23:50.974Z,27.00
2022-08-30T16:26:24.372Z,26.23
2022-08-30T16:28:58.076Z,26.67
2022-08-30T16:31:32.722Z,25.78
2022-08-30T16:34:06.912Z,26.01
2022-08-30T16:36:40.667Z,25.80
2022-08-30T16:39:13.805Z,25.68
2022-08-30T16:41:46.752Z,25.69
2022-08-30T16:44:21.041Z,26.13
2022-08-30T16:46:54.086Z,25.94
2022-08-30T16:49:28.209Z,26.10
2022-08-30T16:52:01.317Z,26.20
2022-08-30T16:54:34.130Z,25.18
2022-08-30T16:57:06.868Z,25.68
2022-08-30T16:59:39.537Z,26.13
2022-08-30T17:02:12.293Z,25.81
2022-08-30T17:04:49.808Z,25.56
2022-08-30T17:07:25.220Z,25.46
2022-08-30T17:09:58.065Z,26.03
2022-08-30T17:12:31.105Z,25.67
2022-08-30T17:15:05.554Z,26.06
2022-08-30T17:17:39.040Z,25.88
2022-08-30T17:20:18.234Z,25.84
2022-08-30T17:22:50.983Z,25.26
2022-08-30T17:25:25.765Z,25.68
2022-08-30T17:28:02.583Z,25.82
2022-08-30T17:30:36.553Z,25.57
2022-08-30T17:33:11.108Z,25.52
2022-08-30T17:35:45.546Z,25.17
2022-08-30T17:38:19.413Z,25.17
2022-08-30T17:40:52.460Z,25.67
2022-08-30T17:43:25.072Z,25.66
2022-08-30T17:46:05.428Z,24.90
2022-08-30T17:48:39.003Z,24.83
2022-08-30T17:51:14.389Z,24.90
2022-08-30T17:53:47.343Z,24.74
2022-08-30T17:56:23.320Z,24.41
2022-08-30T17:59:06.025Z,24.93
2022-08-30T18:01:41.662Z,24.76
2022-08-30T18:04:20.471Z,24.63
2022-08-30T18:06:54.923Z,24.62
2022-08-30T18:09:31.800Z,24.76
2022-08-30T18:12:06.771Z,24.92
2022-08-30T18:14:40.067Z,24.51
2022-08-30T18:17:12.746Z,24.30
2022-08-30T18:19:46.695Z,24.89
2022-08-30T18:22:20.992Z,24.89
2022-08-30T18:24:53.674Z,24.91
2022-08-30T18:27:28.299Z,24.63
2022-08-30T18:30:01.073Z,24.33
2022-08-30T18:32:36.058Z,24.43
2022-08-30T18:35:11.190Z,23.99
2022-08-30T18:37:45.339Z,24.15
2022-08-30T18:40:19.049Z,24.07
2022-08-30T18:42:51.803Z,23.79
2022-08-30T18:45:25.058Z,24.07
2022-08-30T18:47:58.787Z,24.21
2022-08-30T18:50:32.184Z,24.26
2022-08-30T18:53:06.266Z,24.22
2022-08-30T18:55:41.912Z,23.96
2022-08-30T18:58:14.441Z,23.89
2022-08-30T19:00:51.115Z,23.47
2022-08-30T19:03:24.007Z,23.85
2022-08-30T19:05:56.765Z,23.91
2022-08-30T19:08:31.379Z,23.52
2022-08-30T19:11:05.037Z,23.32
2022-08-30T19:13:40.350Z,23.50
2022-08-30T19:16:13.834Z,23.68
2022-08-30T19:18:46.533Z,23.28
2022-08-30T19:21:21.407Z,23.38
2022-08-30T19:23:55.739Z,22.80
2022-08-30T19:26:28.474Z,22.59
2022-08-30T19:29:02.280Z,23.27
2022-08-30T19:31:35.601Z,22.83
2022-08-30T19:34:08.329Z,23.13
2022-08-30T19:36:41.063Z,23.29
2022-08-30T19:39:15.380Z,22.64
2022-08-30T19:41:50.236Z,22.97
2022-08-30T19:44:22.945Z,22.87
2022-08-30T19:46:56.887Z,22.65
2022-08-30T19:49:30.750Z,22.94
2022-08-30T19:52:04.773Z,22.58
2022-08-30T19:54:39.040Z,22.83
2022-08-30T19:57:14.274Z,22.97
2022-08-30T19:59:46.891Z,22.75
2022-08-30T20:02:20.808Z,22.85
2022-08-30T20:04:53.612Z,22.75
2022-08-30T20:07:28.293Z,22.12
2022-08-30T20:10:05.618Z,22.53
2022-08-30T20:12:39.862Z,21.91
2022-08-30T20:15:19.430Z,22.24
2022-08-30T20:18:14.505Z,22.35
2022-08-30T20:20:49.932Z,22.24
2022-08-30T20:23:25.683Z,22.24
2022-08-30T20:26:00.898Z,22.55
2022-08-30T20:28:33.967Z,22.30
2022-08-30T20:31:08.431Z,22.41
2022-08-30T20:33:41.365Z,22.45
2022-08-30T20:36:14.030Z,22.07
2022-08-30T20:38:47.630Z,22.08
2022-08-30T20:41:22.241Z,22.18
2022-08-30T20:43:55.091Z,21.74
2022-08-30T20:46:33.391Z,21.89
2022-08-30T20:49:06.851Z,22.05
2022-08-30T20:51:39.862Z,22.40
2022-08-30T20:54:13.822Z,22.41
2022-08-30T20:56:47.914Z,22.42
2022-08-30T20:59:21.923Z,22.44
2022-08-30T21:01:55.096Z,22.43
2022-08-30T21:04:28.208Z,22.53
2022-08-30T21:07:01.126Z,22.48
2022-08-30T21:09:33.883Z,22.44
2022-08-30T21:12:08.386Z,22.36
2022-08-30T21:14:41.351Z,22.32
2022-08-30T21:17:14.091Z,22.36
2022-08-30T21:19:47.292Z,22.21
2022-08-30T21:22:20.115Z,22.26
2022-08-30T21:24:53.953Z,22.21
2022-08-30T21:27:28.160Z,22.21
2022-08-30T21:30:01.505Z,22.22
2022-08-30T21:32:34.767Z,22.21
2022-08-30T21:35:22.952Z,22.15
2022-08-30T21:37:55.868Z,22.18
2022-08-30T21:40:29.281Z,22.22
2022-08-30T21:43:06.038Z,22.20
2022-08-30T21:45:39.667Z,22.09
2022-08-30T21:48:13.983Z,22.03
2022-08-30T21:50:47.050Z,22.00
2022-08-30T21:53:20.158Z,21.97
2022-08-30T21:55:53.117Z,22.03
2022-08-30T21:58:27.767Z,22.06
2022-08-30T22:01:00.506Z,22.01
2022-08-30T22:03:33.239Z,22.01
2022-08-30T22:06:08.034Z,22.05
2022-08-30T22:08:43.124Z,22.11
2022-08-30T22:11:18.294Z,22.00
2022-08-30T22:13:54.287Z,22.03
2022-08-30T22:16:27.961Z,22.11
2022-08-30T22:19:01.907Z,22.12
2022-08-30T22:21:36.765Z,22.03
2022-08-30T22:24:10.490Z,21.95
2022-08-30T22:26:43.392Z,21.88
2022-08-30T22:29:17.590Z,21.92
2022-08-30T22:31:50.458Z,21.89
2022-08-30T22:34:23.385Z,21.92
2022-08-30T22:36:55.963Z,21.84
2022-08-30T22:39:28.743Z,21.77
2022-08-30T22:42:01.853Z,21.80
2022-08-30T22:44:35.732Z,21.85
2022-08-30T22:47:08.739Z,21.75
2022-08-30T22:49:41.435Z,21.77
2022-08-30T22:52:14.346Z,21.71
2022-08-30T22:54:48.171Z,21.72
2022-08-30T22:57:20.853Z,21.64
2022-08-30T22:59:55.120Z,21.70
2022-08-30T23:02:27.864Z,21.61
2022-08-30T23:05:01.552Z,21.68
2022-08-30T23:07:34.826Z,21.64
2022-08-30T23:10:09.151Z,21.54
2022-08-30T23:12:41.886Z,21.60
2022-08-30T23:15:16.899Z,21.58
2022-08-30T23:17:50.440Z,21.56
2022-08-30T23:20:23.997Z,21.47
2022-08-30T23:22:58.808Z,21.55
2022-08-30T23:25:52.031Z,21.52
2022-08-30T23:28:42.865Z,21.50
2022-08-30T23:31:35.743Z,21.40
2022-08-30T23:34:26.180Z,21.37
2022-08-30T23:37:16.423Z,21.41
2022-08-30T23:40:07.179Z,21.39
2022-08-30T23:42:57.549Z,21.40
2022-08-30T23:45:48.090Z,21.34
2022-08-30T23:48:39.831Z,21.35
2022-08-30T23:51:41.171Z,21.32
2022-08-30T23:54:31.659Z,21.35
2022-08-30T23:57:23.624Z,21.33
